Time;durP1;ratioP1;P1;durP2;ratioP2;P2;SDS_P1;SDS_P2;PMS_P1;PMS_P2;Temp;Humidity;BMP_temperature;BMP_pressure;BME280_temperature;BME280_humidity;BME280_pressure;Samples;Min_cycle;Max_cycle;Signal;HPM_P1;HPM_P2
2021/01/06 00:01:43;;;;;;;31.37;17.07;;;2.40;99.90;;;;;;4864136;29;22199;-92
2021/01/06 00:04:11;;;;;;;31.90;16.90;;;2.40;99.90;;;;;;4865801;29;20486;-94
2021/01/06 00:06:44;;;;;;;31.90;17.00;;;2.40;99.90;;;;;;4867006;29;20280;-93
2021/01/06 00:09:26;;;;;;;30.20;16.83;;;2.40;99.90;;;;;;4869082;29;20806;-94
2021/01/06 00:12:23;;;;;;;33.70;18.87;;;2.50;99.90;;;;;;4868101;29;20468;-94
2021/01/06 00:14:52;;;;;;;28.37;16.23;;;2.40;99.90;;;;;;4864751;29;20482;-93
2021/01/06 00:17:38;;;;;;;27.47;16.10;;;2.40;99.90;;;;;;4869269;29;20481;-93
2021/01/06 00:20:09;;;;;;;28.47;17.10;;;2.40;99.90;;;;;;4847650;29;20578;-93
2021/01/06 00:22:41;;;;;;;31.13;18.90;;;2.50;99.90;;;;;;4867395;29;20438;-93
2021/01/06 00:25:15;;;;;;;26.07;16.63;;;2.50;99.90;;;;;;4868185;29;20475;-95
2021/01/06 00:27:43;;;;;;;28.37;18.53;;;2.40;99.90;;;;;;4864504;29;20894;-93
2021/01/06 00:30:33;;;;;;;28.07;16.67;;;2.50;99.90;;;;;;4865320;29;20464;-93
2021/01/06 00:33:00;;;;;;;28.90;16.77;;;2.50;99.90;;;;;;4854660;29;21047;-93
2021/01/06 00:36:12;;;;;;;27.80;15.70;;;2.40;99.90;;;;;;4861851;29;20460;-95
2021/01/06 00:38:38;;;;;;;24.23;16.37;;;2.40;99.90;;;;;;4860836;29;20747;-96
2021/01/06 00:41:06;;;;;;;26.90;16.53;;;2.40;99.90;;;;;;4867913;29;20976;-94
2021/01/06 00:43:32;;;;;;;25.40;16.63;;;2.50;99.90;;;;;;4866357;29;20478;-95
2021/01/06 00:45:57;;;;;;;28.20;15.00;;;2.50;99.90;;;;;;4865348;29;20550;-94
2021/01/06 00:48:23;;;;;;;23.10;16.13;;;2.50;99.90;;;;;;4865939;29;20190;-95
2021/01/06 00:50:49;;;;;;;24.03;15.43;;;2.40;99.90;;;;;;4863861;29;20377;-93
2021/01/06 00:53:24;;;;;;;27.57;15.03;;;2.40;99.90;;;;;;4867757;29;20804;-94
2021/01/06 00:55:56;;;;;;;23.23;14.87;;;2.40;99.90;;;;;;4866171;29;20458;-94
2021/01/06 00:58:22;;;;;;;20.97;13.40;;;2.50;99.90;;;;;;4863078;29;20446;-95
2021/01/06 01:00:48;;;;;;;22.73;14.30;;;2.50;99.90;;;;;;4866933;29;20590;-94
2021/01/06 01:03:14;;;;;;;23.20;14.93;;;2.50;99.90;;;;;;4866287;29;20928;-95
2021/01/06 01:05:40;;;;;;;21.27;14.53;;;2.50;99.90;;;;;;4864017;29;20312;-94
2021/01/06 01:08:08;;;;;;;21.67;13.20;;;2.50;99.90;;;;;;4865057;29;20595;-91
2021/01/06 01:10:42;;;;;;;20.97;14.00;;;2.50;99.90;;;;;;4860987;29;20492;-92
2021/01/06 01:13:17;;;;;;;26.20;14.33;;;2.40;99.90;;;;;;4863606;29;20501;-92
2021/01/06 01:15:46;;;;;;;21.67;13.87;;;2.40;99.90;;;;;;4860191;29;21194;-94
2021/01/06 01:18:15;;;;;;;25.53;14.73;;;2.50;99.90;;;;;;4868620;29;20462;-93
2021/01/06 01:20:46;;;;;;;20.03;14.23;;;2.40;99.90;;;;;;4860622;29;20455;-94
2021/01/06 01:23:13;;;;;;;20.70;13.47;;;2.40;99.90;;;;;;4864984;29;20443;-93
2021/01/06 01:25:43;;;;;;;20.70;14.30;;;2.50;99.90;;;;;;4860494;29;20493;-92
2021/01/06 01:28:13;;;;;;;19.60;14.23;;;2.40;99.90;;;;;;4865539;29;20447;-92
2021/01/06 01:30:38;;;;;;;19.80;13.77;;;2.40;99.90;;;;;;4863955;29;20491;-93
2021/01/06 01:33:04;;;;;;;16.63;12.67;;;2.40;99.90;;;;;;4863602;29;20452;-92
2021/01/06 01:35:32;;;;;;;20.13;14.30;;;2.40;99.90;;;;;;4865429;29;20685;-92
2021/01/06 01:38:04;;;;;;;24.40;14.77;;;2.30;99.90;;;;;;4866031;29;20211;-93
2021/01/06 01:40:31;;;;;;;23.93;14.90;;;2.30;99.90;;;;;;4865574;29;21955;-92
2021/01/06 01:43:06;;;;;;;21.20;14.37;;;2.30;99.90;;;;;;4864894;29;20480;-91
2021/01/06 01:45:50;;;;;;;21.97;15.20;;;2.20;99.90;;;;;;4867504;29;20511;-92
2021/01/06 01:48:48;;;;;;;21.93;14.40;;;2.10;99.90;;;;;;4866327;29;20801;-93
2021/01/06 01:51:13;;;;;;;20.20;12.67;;;2.10;99.90;;;;;;4860872;29;20454;-93
2021/01/06 01:54:00;;;;;;;24.73;14.23;;;2.20;99.90;;;;;;4864134;29;20461;-93
2021/01/06 01:56:38;;;;;;;18.90;14.30;;;2.20;99.90;;;;;;4879135;29;20202;-92
2021/01/06 01:59:11;;;;;;;17.40;12.77;;;2.20;99.90;;;;;;4863345;29;20452;-94
2021/01/06 02:01:37;;;;;;;21.20;14.87;;;2.20;99.90;;;;;;4863283;29;20462;-92
2021/01/06 02:04:10;;;;;;;20.43;13.37;;;2.10;99.90;;;;;;4862651;29;20459;-92
2021/01/06 02:06:43;;;;;;;22.23;14.30;;;2.00;99.90;;;;;;4862390;29;20820;-91
2021/01/06 02:09:16;;;;;;;21.00;13.93;;;2.00;99.90;;;;;;4864825;29;20463;-92
2021/01/06 02:11:47;;;;;;;20.20;14.00;;;2.00;99.90;;;;;;4874133;29;20482;-92
2021/01/06 02:14:41;;;;;;;21.87;14.30;;;2.00;99.90;;;;;;4864809;29;20560;-93
2021/01/06 02:17:15;;;;;;;23.20;14.90;;;1.90;99.90;;;;;;4857176;29;20956;-91
2021/01/06 02:19:44;;;;;;;21.80;14.00;;;1.90;99.90;;;;;;4860994;29;20461;-91
2021/01/06 02:22:12;;;;;;;21.43;14.80;;;1.90;99.90;;;;;;4867365;29;20457;-93
2021/01/06 02:24:39;;;;;;;21.73;13.70;;;2.00;99.90;;;;;;4864045;29;20529;-92
2021/01/06 02:27:05;;;;;;;23.80;14.17;;;2.00;99.90;;;;;;4862379;29;20808;-92
2021/01/06 02:29:33;;;;;;;18.07;12.80;;;1.90;99.90;;;;;;4862072;29;20462;-92
2021/01/06 02:31:59;;;;;;;19.60;12.87;;;2.00;99.90;;;;;;4863384;29;20462;-92
2021/01/06 02:34:26;;;;;;;20.63;13.83;;;2.00;99.90;;;;;;4862600;29;20898;-91
2021/01/06 02:36:52;;;;;;;22.37;13.57;;;2.00;99.90;;;;;;4866995;29;20447;-93
2021/01/06 02:39:18;;;;;;;22.63;14.13;;;2.10;99.90;;;;;;4863482;29;20472;-93
2021/01/06 02:41:47;;;;;;;22.70;15.20;;;2.10;99.90;;;;;;4864489;29;21072;-93
2021/01/06 02:44:16;;;;;;;22.30;14.20;;;2.00;99.90;;;;;;4863262;29;20305;-92
2021/01/06 02:46:43;;;;;;;21.10;15.17;;;2.00;99.90;;;;;;4867006;29;20466;-91
2021/01/06 02:49:09;;;;;;;25.47;14.93;;;2.00;99.90;;;;;;4866077;29;20455;-91
2021/01/06 02:51:44;;;;;;;19.07;13.13;;;2.00;99.90;;;;;;4866845;29;20791;-92
2021/01/06 02:54:14;;;;;;;21.10;14.20;;;2.00;99.90;;;;;;4862097;29;20492;-91
2021/01/06 02:56:42;;;;;;;23.80;15.87;;;2.00;99.90;;;;;;4866290;29;20454;-91
2021/01/06 02:59:10;;;;;;;21.63;13.90;;;1.90;99.90;;;;;;4863402;29;20960;-92
2021/01/06 03:01:39;;;;;;;18.43;12.27;;;1.90;99.90;;;;;;4864317;29;20458;-90
2021/01/06 03:04:10;;;;;;;22.60;15.47;;;1.90;99.90;;;;;;4851694;29;20459;-92
2021/01/06 03:07:08;;;;;;;22.07;14.77;;;2.00;99.90;;;;;;4866987;29;20521;-91
2021/01/06 03:09:39;;;;;;;20.30;13.43;;;2.00;99.90;;;;;;4862101;29;20467;-91
2021/01/06 03:12:19;;;;;;;19.10;12.90;;;2.00;99.90;;;;;;4864657;29;21131;-93
2021/01/06 03:14:51;;;;;;;21.70;13.97;;;2.00;99.90;;;;;;4866114;29;21147;-92
2021/01/06 03:17:34;;;;;;;23.13;13.53;;;2.00;99.90;;;;;;4860832;29;20446;-91
2021/01/06 03:20:24;;;;;;;21.57;13.60;;;1.90;99.90;;;;;;4876186;29;22061;-93
2021/01/06 03:23:03;;;;;;;19.60;12.37;;;1.90;99.90;;;;;;4862659;29;20732;-92
2021/01/06 03:25:50;;;;;;;17.70;11.87;;;1.90;99.90;;;;;;4865688;29;20450;-92
2021/01/06 03:28:20;;;;;;;18.03;12.33;;;1.90;99.90;;;;;;4877081;29;21318;-91
2021/01/06 03:30:47;;;;;;;19.60;12.57;;;1.90;99.90;;;;;;4876437;29;20459;-92
2021/01/06 03:33:42;;;;;;;20.60;12.33;;;1.90;99.90;;;;;;4864626;29;20471;-91
2021/01/06 03:36:17;;;;;;;16.53;12.80;;;1.90;99.90;;;;;;4860787;29;20998;-90
2021/01/06 03:39:00;;;;;;;19.27;12.30;;;1.90;99.90;;;;;;4862262;29;20471;-92
2021/01/06 03:41:28;;;;;;;16.47;11.80;;;2.00;99.90;;;;;;4859664;29;20448;-91
2021/01/06 03:44:05;;;;;;;14.83;10.93;;;2.00;99.90;;;;;;4874838;29;20513;-92
2021/01/06 03:46:47;;;;;;;16.20;11.30;;;2.00;99.90;;;;;;4859528;29;20498;-92
2021/01/06 03:49:35;;;;;;;16.50;11.70;;;2.00;99.90;;;;;;4862246;29;20793;-91
2021/01/06 03:52:11;;;;;;;16.30;12.20;;;1.90;99.90;;;;;;4860829;29;20545;-91
2021/01/06 03:55:07;;;;;;;15.47;11.50;;;1.90;99.90;;;;;;4864410;29;20485;-90
2021/01/06 03:57:34;;;;;;;21.13;17.67;;;1.90;99.90;;;;;;4862733;29;20455;-90
2021/01/06 04:00:05;;;;;;;20.23;14.03;;;1.90;99.90;;;;;;4864055;29;22239;-90
2021/01/06 04:02:44;;;;;;;15.77;12.47;;;1.90;99.90;;;;;;4861033;29;20497;-89
2021/01/06 04:05:17;;;;;;;16.90;12.60;;;1.80;99.90;;;;;;4863908;29;20462;-89
2021/01/06 04:08:20;;;;;;;15.40;11.60;;;1.70;99.90;;;;;;4874172;29;20457;-91
2021/01/06 04:10:56;;;;;;;14.00;10.00;;;1.80;99.90;;;;;;4862515;29;20609;-89
2021/01/06 04:13:25;;;;;;;15.90;11.07;;;1.80;99.90;;;;;;4863970;29;20458;-91
2021/01/06 04:15:52;;;;;;;18.33;11.70;;;1.70;99.90;;;;;;4863077;29;20465;-90
2021/01/06 04:18:17;;;;;;;17.17;12.83;;;1.70;99.90;;;;;;4863430;29;20835;-90
2021/01/06 04:21:03;;;;;;;17.77;11.83;;;1.80;99.90;;;;;;4867986;29;20542;-90
2021/01/06 04:23:30;;;;;;;13.37;11.13;;;1.70;99.90;;;;;;4864809;29;20205;-90
2021/01/06 04:25:56;;;;;;;15.60;11.20;;;1.70;99.90;;;;;;4859972;29;20472;-91
2021/01/06 04:28:25;;;;;;;18.63;12.63;;;1.60;99.90;;;;;;4864642;29;20877;-89
2021/01/06 04:30:52;;;;;;;16.30;11.47;;;1.60;99.90;;;;;;4878940;29;20489;-91
2021/01/06 04:33:27;;;;;;;16.90;11.20;;;1.60;99.90;;;;;;4863800;29;20510;-90
2021/01/06 04:35:57;;;;;;;16.87;11.20;;;1.60;99.90;;;;;;4865636;29;20495;-90
2021/01/06 04:38:29;;;;;;;14.03;10.60;;;1.60;99.90;;;;;;4863260;29;20506;-90
2021/01/06 04:44:24;;;;;;;18.10;12.00;;;1.60;99.90;;;;;;4867401;29;20465;-89
2021/01/06 04:47:21;;;;;;;13.47;10.40;;;1.70;99.90;;;;;;4856696;29;20518;-90
2021/01/06 04:50:44;;;;;;;16.43;11.00;;;1.60;99.90;;;;;;4865058;29;20572;-91
2021/01/06 04:53:52;;;;;;;13.60;11.10;;;1.70;99.90;;;;;;4858144;29;20464;-92
2021/01/06 04:57:11;;;;;;;16.43;11.37;;;1.60;99.90;;;;;;4862677;29;20451;-90
2021/01/06 05:00:04;;;;;;;16.80;11.77;;;1.60;99.90;;;;;;4849303;29;20473;-90
2021/01/06 05:02:54;;;;;;;16.60;11.70;;;1.60;99.90;;;;;;4858962;29;20480;-91
2021/01/06 05:05:54;;;;;;;16.50;11.33;;;1.50;99.90;;;;;;4860547;29;20446;-91
2021/01/06 05:08:57;;;;;;;13.60;10.30;;;1.50;99.90;;;;;;4863948;29;20506;-92
2021/01/06 05:11:46;;;;;;;17.40;12.63;;;1.50;99.90;;;;;;4865078;29;20445;-90
2021/01/06 05:14:19;;;;;;;14.50;10.20;;;1.60;99.90;;;;;;4863479;29;20600;-91
2021/01/06 05:16:50;;;;;;;18.20;12.00;;;1.60;99.90;;;;;;4860743;29;20466;-92
2021/01/06 05:19:25;;;;;;;16.73;11.83;;;1.60;99.90;;;;;;4863042;29;20538;-93
2021/01/06 05:21:52;;;;;;;18.77;12.60;;;1.60;99.90;;;;;;4860004;29;20988;-92
2021/01/06 05:24:43;;;;;;;14.83;11.80;;;1.70;99.90;;;;;;4863163;29;20482;-91
2021/01/06 05:27:36;;;;;;;18.50;12.50;;;1.70;99.90;;;;;;4866562;29;20480;-91
2021/01/06 05:30:21;;;;;;;18.20;12.63;;;1.70;99.90;;;;;;4865077;29;20540;-90
2021/01/06 05:32:48;;;;;;;18.33;13.57;;;1.70;99.90;;;;;;4862866;29;20462;-89
2021/01/06 05:35:18;;;;;;;19.37;13.30;;;1.50;99.90;;;;;;4862688;29;20486;-90
2021/01/06 05:37:51;;;;;;;18.90;13.47;;;1.50;99.90;;;;;;4864082;29;20457;-90
2021/01/06 05:40:18;;;;;;;20.83;14.77;;;1.60;99.90;;;;;;4861775;29;20581;-90
2021/01/06 05:42:55;;;;;;;23.73;16.93;;;1.60;99.90;;;;;;4862535;29;20483;-90
2021/01/06 05:45:36;;;;;;;17.87;12.30;;;1.70;99.90;;;;;;4859273;29;20458;-90
2021/01/06 05:48:13;;;;;;;31.00;19.47;;;1.70;99.90;;;;;;4860636;29;20497;-91
2021/01/06 05:50:43;;;;;;;17.27;13.00;;;1.70;99.90;;;;;;4861216;29;20750;-90
2021/01/06 05:53:33;;;;;;;19.80;14.00;;;1.60;99.90;;;;;;4864087;29;20470;-92
2021/01/06 05:56:19;;;;;;;15.70;10.63;;;1.60;99.90;;;;;;4859741;29;20466;-91
2021/01/06 05:59:01;;;;;;;17.93;13.47;;;1.60;99.90;;;;;;4863335;29;20465;-92
2021/01/06 06:01:50;;;;;;;19.77;12.07;;;1.60;99.90;;;;;;4857983;29;20455;-91
2021/01/06 06:04:37;;;;;;;17.90;13.30;;;1.60;99.90;;;;;;4862508;29;20458;-91
2021/01/06 06:07:27;;;;;;;19.97;14.17;;;1.60;99.90;;;;;;4868551;29;20453;-92
2021/01/06 06:10:07;;;;;;;20.80;12.13;;;1.40;99.90;;;;;;4864075;29;20469;-91
2021/01/06 06:12:57;;;;;;;18.67;13.30;;;1.40;99.90;;;;;;4860625;29;20449;-91
2021/01/06 06:15:50;;;;;;;23.50;13.27;;;1.40;99.90;;;;;;4863277;29;20482;-92
2021/01/06 06:19:00;;;;;;;19.10;12.70;;;1.40;99.90;;;;;;4863773;29;20455;-92
2021/01/06 06:21:43;;;;;;;15.47;11.37;;;1.50;99.90;;;;;;4840263;29;21161;-89
2021/01/06 06:24:18;;;;;;;18.03;11.33;;;1.50;99.90;;;;;;4866645;29;20499;-92
2021/01/06 06:26:58;;;;;;;21.20;12.10;;;1.50;99.90;;;;;;4865517;29;20464;-90
2021/01/06 06:29:39;;;;;;;16.83;12.30;;;1.50;99.90;;;;;;4865573;29;20590;-90
2021/01/06 06:32:05;;;;;;;20.10;13.23;;;1.50;99.90;;;;;;4866185;29;20453;-89
2021/01/06 06:34:59;;;;;;;16.23;11.87;;;1.50;99.90;;;;;;4866655;29;20498;-89
2021/01/06 06:37:46;;;;;;;20.40;12.07;;;1.50;99.90;;;;;;4866986;29;20553;-90
2021/01/06 06:40:15;;;;;;;20.87;11.70;;;1.50;99.90;;;;;;4838759;29;20805;-90
2021/01/06 06:42:58;;;;;;;17.90;12.20;;;1.50;99.90;;;;;;4863577;29;20615;-89
2021/01/06 06:45:41;;;;;;;19.57;12.27;;;1.50;99.90;;;;;;4865109;29;20450;-90
2021/01/06 06:48:27;;;;;;;19.80;11.30;;;1.60;99.90;;;;;;4866005;29;20453;-91
2021/01/06 06:51:05;;;;;;;23.00;13.73;;;1.50;99.90;;;;;;4864297;29;20446;-90
2021/01/06 06:54:17;;;;;;;20.53;13.00;;;1.50;99.90;;;;;;4865072;29;20548;-90
2021/01/06 06:56:55;;;;;;;22.23;12.60;;;1.40;99.90;;;;;;4859539;29;20460;-93
2021/01/06 06:59:28;;;;;;;19.03;11.60;;;1.50;99.90;;;;;;4867324;29;20574;-89
2021/01/06 07:02:00;;;;;;;20.63;12.00;;;1.50;99.90;;;;;;4860711;29;20458;-90
2021/01/06 07:04:47;;;;;;;20.30;12.57;;;1.50;99.90;;;;;;4866058;29;20878;-88
2021/01/06 07:07:41;;;;;;;20.17;14.37;;;1.50;99.90;;;;;;4875915;29;20445;-86
2021/01/06 07:10:20;;;;;;;18.13;12.43;;;1.60;99.90;;;;;;4863247;29;20450;-87
2021/01/06 07:12:48;;;;;;;20.20;13.90;;;1.60;99.90;;;;;;4863120;29;20458;-88
2021/01/06 07:15:49;;;;;;;21.87;12.60;;;1.60;99.90;;;;;;4864591;29;20857;-90
2021/01/06 07:18:27;;;;;;;18.80;13.13;;;1.60;99.90;;;;;;4807195;29;20447;-91
2021/01/06 07:21:21;;;;;;;36.50;19.70;;;1.60;99.90;;;;;;4856827;29;20469;-87
2021/01/06 07:24:01;;;;;;;83.10;34.53;;;1.60;99.90;;;;;;4860422;29;20451;-88
2021/01/06 07:26:43;;;;;;;77.20;33.47;;;1.50;99.90;;;;;;4863865;29;20447;-89
2021/01/06 07:29:12;;;;;;;58.40;27.40;;;1.50;99.90;;;;;;4866864;29;20451;-88
2021/01/06 07:32:08;;;;;;;42.23;30.10;;;1.60;99.90;;;;;;4866240;29;20500;-89
2021/01/06 07:34:37;;;;;;;19.57;14.10;;;1.60;99.90;;;;;;4860821;29;20882;-89
2021/01/06 07:37:05;;;;;;;21.60;13.77;;;1.50;99.90;;;;;;4861335;29;20511;-88
2021/01/06 07:39:35;;;;;;;22.43;13.87;;;1.50;99.90;;;;;;4866755;29;20474;-89
2021/01/06 07:42:07;;;;;;;19.03;12.60;;;1.60;99.90;;;;;;4865000;29;20622;-88
2021/01/06 07:44:38;;;;;;;15.70;11.17;;;1.60;99.90;;;;;;4861927;29;20445;-87
2021/01/06 07:47:13;;;;;;;18.50;12.80;;;1.60;99.90;;;;;;4867865;29;20911;-89
2021/01/06 07:49:38;;;;;;;18.00;12.63;;;1.60;99.90;;;;;;4864805;29;20518;-90
2021/01/06 07:52:28;;;;;;;16.67;12.60;;;1.60;99.90;;;;;;4865811;29;20446;-90
2021/01/06 07:55:24;;;;;;;17.40;13.27;;;1.60;99.90;;;;;;4865162;29;20225;-91
2021/01/06 07:58:07;;;;;;;17.20;11.67;;;1.60;99.90;;;;;;4863287;29;20465;-91
2021/01/06 08:00:41;;;;;;;19.10;13.20;;;1.60;99.90;;;;;;4864053;29;20636;-91
2021/01/06 08:03:20;;;;;;;20.67;12.27;;;1.60;99.90;;;;;;4868016;29;20470;-90
2021/01/06 08:05:55;;;;;;;18.47;12.00;;;1.60;99.90;;;;;;4867226;29;20723;-89
2021/01/06 08:08:23;;;;;;;18.60;13.23;;;1.50;99.90;;;;;;4869189;29;22810;-90
2021/01/06 08:10:50;;;;;;;20.43;14.10;;;1.60;99.90;;;;;;4868141;29;20457;-90
2021/01/06 08:13:24;;;;;;;22.67;13.03;;;1.60;99.90;;;;;;4867024;29;20451;-91
2021/01/06 08:15:54;;;;;;;17.10;12.43;;;1.70;99.90;;;;;;4868561;29;20490;-89
2021/01/06 08:18:33;;;;;;;20.20;13.13;;;1.70;99.90;;;;;;4870633;29;20804;-93
2021/01/06 08:21:30;;;;;;;18.60;13.97;;;1.60;99.90;;;;;;4867247;29;21019;-89
2021/01/06 08:24:08;;;;;;;17.80;11.87;;;1.60;99.90;;;;;;4866129;29;20474;-88
2021/01/06 08:26:35;;;;;;;21.00;11.80;;;1.70;99.90;;;;;;4865453;29;20454;-88
2021/01/06 08:29:10;;;;;;;17.87;13.10;;;1.70;99.90;;;;;;4883942;29;20453;-89
2021/01/06 08:31:37;;;;;;;16.47;11.90;;;1.70;99.90;;;;;;4864386;29;20461;-88
2021/01/06 08:34:04;;;;;;;17.90;11.77;;;1.80;99.90;;;;;;4869518;29;20526;-89
2021/01/06 08:36:32;;;;;;;19.27;13.03;;;1.70;99.90;;;;;;4869884;29;20709;-89
2021/01/06 08:39:16;;;;;;;17.83;12.57;;;1.70;99.90;;;;;;4867612;29;20549;-91
2021/01/06 08:41:46;;;;;;;17.90;12.60;;;1.70;99.90;;;;;;4866800;29;20889;-90
2021/01/06 08:44:55;;;;;;;17.80;12.57;;;1.70;99.90;;;;;;4866452;29;20999;-89
2021/01/06 08:47:36;;;;;;;16.33;10.80;;;1.70;99.90;;;;;;4813096;29;20456;-89
2021/01/06 08:50:17;;;;;;;15.73;11.20;;;1.70;99.90;;;;;;4864872;29;20808;-90
2021/01/06 08:52:49;;;;;;;14.30;11.40;;;1.80;99.90;;;;;;4866704;29;20499;-90
2021/01/06 08:55:31;;;;;;;16.50;11.90;;;1.80;99.90;;;;;;4865940;29;20956;-89
2021/01/06 08:58:03;;;;;;;19.97;13.80;;;1.70;99.90;;;;;;4866697;29;20438;-90
2021/01/06 09:00:31;;;;;;;19.70;12.97;;;1.70;99.90;;;;;;4863754;29;20529;-88
2021/01/06 09:03:02;;;;;;;19.27;13.00;;;1.70;99.90;;;;;;4865048;29;20430;-88
2021/01/06 09:05:49;;;;;;;19.47;13.80;;;1.70;99.90;;;;;;4861299;29;20454;-85
2021/01/06 09:08:26;;;;;;;16.57;12.33;;;1.70;99.90;;;;;;4877042;29;20450;-86
2021/01/06 09:11:00;;;;;;;20.10;13.30;;;1.80;99.90;;;;;;4863448;29;20456;-86
2021/01/06 09:13:49;;;;;;;16.90;11.13;;;1.80;99.90;;;;;;4872967;29;20797;-86
2021/01/06 09:16:24;;;;;;;17.17;11.77;;;1.90;99.90;;;;;;4844847;29;20458;-86
2021/01/06 09:19:09;;;;;;;14.67;11.30;;;1.90;99.90;;;;;;4880736;29;20465;-86
2021/01/06 09:21:35;;;;;;;14.83;11.27;;;1.80;99.90;;;;;;4872186;29;20508;-87
2021/01/06 09:24:14;;;;;;;15.97;11.77;;;1.90;99.90;;;;;;4862811;29;20454;-91
2021/01/06 09:26:45;;;;;;;16.77;11.87;;;1.90;99.90;;;;;;4863045;29;20549;-90
2021/01/06 09:29:15;;;;;;;16.20;11.67;;;1.90;99.90;;;;;;4862049;29;20497;-89
2021/01/06 09:31:42;;;;;;;17.80;12.10;;;1.90;99.90;;;;;;4864108;29;20503;-88
2021/01/06 09:34:10;;;;;;;15.40;11.20;;;1.80;99.90;;;;;;4859476;29;20474;-88
2021/01/06 09:36:36;;;;;;;15.50;11.77;;;1.90;99.90;;;;;;4861882;29;20654;-89
2021/01/06 09:39:06;;;;;;;13.33;10.43;;;1.90;99.90;;;;;;4864551;29;20445;-89
2021/01/06 09:41:36;;;;;;;15.10;11.17;;;2.00;99.90;;;;;;4861074;29;20800;-88
2021/01/06 09:44:09;;;;;;;13.70;11.20;;;2.00;99.90;;;;;;4859233;29;20460;-88
2021/01/06 09:46:35;;;;;;;13.87;10.80;;;2.00;99.90;;;;;;4860788;29;20529;-89
2021/01/06 09:49:10;;;;;;;17.27;12.13;;;2.00;99.90;;;;;;4861184;29;20956;-88
2021/01/06 09:51:39;;;;;;;14.83;11.57;;;1.90;99.90;;;;;;4877246;29;20195;-88
2021/01/06 09:54:06;;;;;;;14.90;10.77;;;1.90;99.90;;;;;;4872668;29;20565;-89
2021/01/06 09:56:35;;;;;;;15.30;10.77;;;1.90;99.90;;;;;;4872614;29;20458;-92
2021/01/06 09:59:05;;;;;;;13.37;9.50;;;2.00;99.90;;;;;;4872032;29;20862;-90
2021/01/06 10:01:43;;;;;;;12.47;10.20;;;2.10;99.90;;;;;;4872555;29;20450;-90
2021/01/06 10:04:36;;;;;;;16.97;12.07;;;2.00;99.90;;;;;;4866097;29;20481;-96
2021/01/06 10:07:25;;;;;;;17.47;11.70;;;2.00;99.90;;;;;;4867830;29;20446;-93
2021/01/06 10:10:48;;;;;;;19.80;10.60;;;2.00;99.90;;;;;;4833567;29;20446;-94
2021/01/06 10:13:57;;;;;;;16.47;11.30;;;2.00;99.90;;;;;;4867751;29;20465;-94
2021/01/06 10:16:59;;;;;;;14.40;11.33;;;2.00;99.90;;;;;;4889505;29;20498;-95
2021/01/06 10:19:50;;;;;;;14.70;11.17;;;2.10;99.90;;;;;;4849153;29;20474;-95
2021/01/06 10:22:41;;;;;;;12.53;10.20;;;2.10;99.90;;;;;;4871009;29;20462;-94
2021/01/06 10:25:24;;;;;;;14.53;10.60;;;2.20;99.90;;;;;;4864043;29;20454;-94
2021/01/06 10:27:58;;;;;;;12.27;9.17;;;2.20;99.90;;;;;;4880670;29;20458;-90
2021/01/06 10:30:27;;;;;;;14.03;10.87;;;2.10;99.90;;;;;;4866981;29;20457;-91
2021/01/06 10:33:14;;;;;;;12.93;9.93;;;1.90;99.90;;;;;;4861622;29;20446;-93
2021/01/06 10:35:54;;;;;;;15.10;10.80;;;1.90;99.90;;;;;;4867857;29;20533;-92
2021/01/06 10:38:30;;;;;;;13.07;10.40;;;2.10;99.90;;;;;;4864610;29;22984;-89
2021/01/06 10:41:10;;;;;;;13.17;10.70;;;2.00;99.90;;;;;;4867252;29;20816;-89
2021/01/06 10:43:38;;;;;;;12.57;9.70;;;1.90;99.90;;;;;;4861447;29;20447;-89
2021/01/06 10:46:42;;;;;;;13.27;9.63;;;2.00;99.90;;;;;;4863590;29;20533;-88
2021/01/06 10:49:32;;;;;;;13.33;10.90;;;1.90;99.90;;;;;;4861658;29;20451;-95
2021/01/06 10:52:01;;;;;;;12.93;10.00;;;2.00;99.90;;;;;;4869113;29;20534;-95
2021/01/06 10:54:38;;;;;;;14.73;11.97;;;2.10;99.90;;;;;;4865834;29;20477;-95
2021/01/06 10:57:56;;;;;;;14.80;11.97;;;2.10;99.90;;;;;;4865436;29;20446;-95
2021/01/06 11:00:25;;;;;;;12.00;10.00;;;2.20;99.90;;;;;;4866468;29;20475;-92
2021/01/06 11:03:13;;;;;;;12.27;10.23;;;2.10;99.90;;;;;;4865234;29;21011;-94
2021/01/06 11:06:07;;;;;;;12.63;10.17;;;2.10;99.90;;;;;;4866083;29;20819;-96
2021/01/06 11:09:02;;;;;;;18.63;13.20;;;2.10;99.90;;;;;;4866787;29;20454;-92
2021/01/06 11:11:54;;;;;;;12.20;8.40;;;2.10;99.90;;;;;;4869689;29;20492;-94
2021/01/06 11:14:53;;;;;;;12.40;9.77;;;2.10;99.90;;;;;;4876166;29;20478;-94
2021/01/06 11:17:18;;;;;;;11.70;9.33;;;1.90;99.90;;;;;;4864172;29;20510;-92
2021/01/06 11:19:46;;;;;;;14.03;10.40;;;1.90;99.90;;;;;;4869730;29;20458;-95
2021/01/06 11:22:42;;;;;;;15.20;11.80;;;1.90;99.90;;;;;;4864299;29;20572;-94
2021/01/06 11:25:38;;;;;;;19.40;14.97;;;1.90;99.90;;;;;;4877413;29;20469;-96
2021/01/06 11:28:04;;;;;;;17.90;14.43;;;1.90;99.90;;;;;;4868252;29;20454;-96
2021/01/06 11:30:39;;;;;;;19.17;15.30;;;2.00;99.90;;;;;;4884612;29;20796;-96
2021/01/06 11:33:14;;;;;;;11.83;10.13;;;2.00;99.90;;;;;;4880524;29;20205;-93
2021/01/06 11:36:00;;;;;;;11.00;9.50;;;2.00;99.90;;;;;;4867406;29;20493;-90
2021/01/06 11:38:37;;;;;;;16.33;11.37;;;2.00;99.90;;;;;;4857233;29;20523;-92
2021/01/06 11:41:10;;;;;;;11.60;9.30;;;2.10;99.90;;;;;;4857756;29;21003;-91
2021/01/06 11:43:47;;;;;;;8.27;7.47;;;2.10;99.90;;;;;;4860058;29;21180;-91
2021/01/06 11:46:51;;;;;;;9.30;7.70;;;2.10;99.90;;;;;;4854502;29;20454;-92
2021/01/06 11:49:28;;;;;;;8.60;7.47;;;2.20;99.90;;;;;;4839338;29;20453;-91
2021/01/06 11:52:21;;;;;;;11.07;8.73;;;2.20;99.90;;;;;;4857500;29;20480;-94
2021/01/06 11:54:52;;;;;;;10.90;8.27;;;2.10;99.90;;;;;;4874812;29;21766;-91
2021/01/06 11:57:28;;;;;;;10.67;9.40;;;2.20;99.90;;;;;;4854750;29;20590;-92
2021/01/06 12:00:21;;;;;;;13.37;10.67;;;2.20;99.90;;;;;;4852699;29;20750;-89
2021/01/06 12:03:14;;;;;;;11.73;10.27;;;2.20;99.90;;;;;;4854400;29;20517;-91
2021/01/06 12:05:59;;;;;;;10.50;9.30;;;2.20;99.90;;;;;;4859062;29;20618;-89
2021/01/06 12:08:48;;;;;;;12.30;9.17;;;2.20;99.90;;;;;;4856055;29;20450;-94
2021/01/06 12:11:37;;;;;;;11.63;8.70;;;2.20;99.90;;;;;;4857459;29;20455;-89
2021/01/06 12:14:47;;;;;;;12.03;9.40;;;2.10;99.90;;;;;;4861243;29;20996;-90
2021/01/06 12:17:21;;;;;;;11.90;8.17;;;2.10;99.90;;;;;;4852850;29;21530;-91
2021/01/06 12:20:08;;;;;;;12.53;9.40;;;2.10;99.90;;;;;;4858671;29;20505;-89
2021/01/06 12:22:35;;;;;;;11.77;8.93;;;2.10;99.90;;;;;;4854082;29;20546;-89
2021/01/06 12:25:22;;;;;;;12.10;8.97;;;2.10;99.90;;;;;;4859668;29;20458;-90
2021/01/06 12:28:24;;;;;;;10.47;7.63;;;2.20;99.90;;;;;;4857726;29;20957;-89
2021/01/06 12:31:11;;;;;;;10.70;7.90;;;2.30;99.90;;;;;;4855721;29;20464;-88
2021/01/06 12:33:36;;;;;;;14.10;9.13;;;2.20;99.90;;;;;;4857634;29;20809;-90
2021/01/06 12:36:19;;;;;;;17.60;15.60;;;2.10;99.90;;;;;;4862097;29;21632;-87
2021/01/06 12:38:46;;;;;;;13.50;10.47;;;2.10;99.90;;;;;;4858684;29;20193;-90
2021/01/06 12:41:22;;;;;;;14.67;10.27;;;2.10;99.90;;;;;;4859625;29;20450;-91
2021/01/06 12:43:56;;;;;;;13.57;9.40;;;2.10;99.90;;;;;;4855221;29;20451;-89
2021/01/06 12:46:38;;;;;;;13.10;9.10;;;2.10;99.90;;;;;;4857872;29;20516;-93
2021/01/06 12:49:13;;;;;;;13.17;9.43;;;2.00;99.90;;;;;;4861484;29;20760;-93
2021/01/06 12:52:17;;;;;;;12.83;9.77;;;2.10;99.90;;;;;;4854921;29;20825;-90
2021/01/06 12:54:51;;;;;;;11.20;9.40;;;2.20;99.90;;;;;;4858414;29;20481;-89
2021/01/06 12:57:33;;;;;;;14.50;11.33;;;2.20;99.90;;;;;;4860696;29;20442;-93
2021/01/06 13:00:13;;;;;;;13.07;10.30;;;2.10;99.90;;;;;;4857813;29;21033;-91
2021/01/06 13:02:41;;;;;;;13.17;9.40;;;2.00;99.90;;;;;;4845775;29;20457;-93
2021/01/06 13:05:29;;;;;;;15.50;12.13;;;2.10;99.90;;;;;;4873611;29;20469;-96
2021/01/06 13:07:59;;;;;;;14.77;10.97;;;2.20;99.90;;;;;;4859658;29;20447;-94
2021/01/06 13:10:28;;;;;;;15.87;11.20;;;2.20;99.90;;;;;;4865008;29;20453;-95
2021/01/06 13:13:18;;;;;;;13.43;10.37;;;2.10;99.90;;;;;;4866052;29;20449;-95
2021/01/06 13:16:03;;;;;;;16.67;9.87;;;2.20;99.90;;;;;;4868228;29;20585;-95
2021/01/06 13:18:44;;;;;;;14.77;9.47;;;2.20;99.90;;;;;;4861393;29;20476;-94
2021/01/06 13:21:27;;;;;;;14.30;10.93;;;2.20;99.90;;;;;;4857176;29;20550;-94
2021/01/06 13:23:56;;;;;;;14.73;9.73;;;2.20;99.90;;;;;;4867598;29;20457;-93
2021/01/06 13:26:35;;;;;;;14.80;9.63;;;2.40;99.90;;;;;;4858777;29;20545;-89
2021/01/06 13:29:06;;;;;;;17.10;12.27;;;2.40;99.90;;;;;;4861198;29;20465;-92
2021/01/06 13:31:50;;;;;;;13.80;9.50;;;2.40;99.90;;;;;;4860838;29;20545;-94
2021/01/06 13:34:31;;;;;;;13.53;9.90;;;2.40;99.90;;;;;;4859887;29;20489;-92
2021/01/06 14:03:33;;;;;;;14.10;10.40;;;2.30;99.90;;;;;;6254998;22;983141;-96
2021/01/06 14:06:34;;;;;;;14.63;10.97;;;2.20;99.90;;;;;;6209091;22;20322;-95